Time;durP1;ratioP1;P1;durP2;ratioP2;P2;SDS_P1;SDS_P2;PMS_P1;PMS_P2;Temp;Humidity;BMP_temperature;BMP_pressure;BME280_temperature;BME280_humidity;BME280_pressure;Samples;Min_cycle;Max_cycle;Signal;HPM_P1;HPM_P2
2021/05/12 00:02:17;;;;;;;2.53;1.53;;;23.10;50.40;;;;;;5058317;28;20407;-83
2021/05/12 00:04:46;;;;;;;1.63;1.40;;;23.10;50.40;;;;;;5041100;28;20625;-83
2021/05/12 00:07:12;;;;;;;2.60;1.60;;;23.00;50.30;;;;;;5024687;28;20510;-83
2021/05/12 00:09:38;;;;;;;2.07;1.43;;;23.10;50.40;;;;;;5058271;28;20414;-83
2021/05/12 00:12:05;;;;;;;1.60;1.40;;;23.10;50.40;;;;;;5041198;28;20414;-84
2021/05/12 00:14:32;;;;;;;2.13;1.70;;;23.10;50.40;;;;;;5041165;28;20422;-83
2021/05/12 00:17:02;;;;;;;2.53;1.70;;;23.10;50.40;;;;;;5040846;28;20462;-83
2021/05/12 00:19:30;;;;;;;4.40;1.87;;;23.10;50.40;;;;;;5058828;28;20402;-83
2021/05/12 00:24:34;;;;;;;1.90;1.40;;;23.00;50.40;;;;;;5058868;28;20392;-83
2021/05/12 00:27:00;;;;;;;1.93;1.30;;;23.00;50.40;;;;;;5040904;28;20556;-83
2021/05/12 00:29:29;;;;;;;1.53;1.27;;;23.00;50.40;;;;;;5021224;28;20422;-82
2021/05/12 00:31:55;;;;;;;1.73;1.30;;;23.00;50.50;;;;;;5037179;28;20433;-83
2021/05/12 00:34:21;;;;;;;1.93;1.20;;;23.00;50.50;;;;;;5037263;28;20839;-83
2021/05/12 00:36:47;;;;;;;3.30;1.33;;;23.00;50.50;;;;;;5038265;28;20202;-82
2021/05/12 00:39:14;;;;;;;1.40;1.20;;;23.00;50.50;;;;;;5040434;28;20422;-83
2021/05/12 00:41:45;;;;;;;1.90;1.27;;;23.00;50.50;;;;;;5056908;28;20411;-83
2021/05/12 00:44:20;;;;;;;3.23;1.50;;;23.00;50.50;;;;;;5040956;28;20398;-83
2021/05/12 00:46:51;;;;;;;1.70;1.40;;;23.00;50.50;;;;;;5032610;28;20426;-85
2021/05/12 00:49:18;;;;;;;2.27;1.10;;;23.00;50.60;;;;;;5030470;28;20442;-85
2021/05/12 00:51:44;;;;;;;1.60;1.20;;;23.00;50.60;;;;;;5030474;28;20501;-85
2021/05/12 00:54:11;;;;;;;1.87;1.20;;;23.00;50.60;;;;;;5048651;28;20784;-85
2021/05/12 00:56:43;;;;;;;2.00;1.50;;;23.00;50.60;;;;;;5047908;28;20422;-85
2021/05/12 00:59:10;;;;;;;2.93;1.53;;;23.00;50.60;;;;;;5030244;28;20441;-85
2021/05/12 01:01:36;;;;;;;3.07;1.50;;;23.00;50.60;;;;;;5038985;28;20427;-84
2021/05/12 01:04:02;;;;;;;1.70;1.20;;;23.00;50.60;;;;;;5023931;28;20502;-84
2021/05/12 01:06:33;;;;;;;5.40;1.43;;;23.00;50.60;;;;;;5047976;28;20415;-85
2021/05/12 01:08:59;;;;;;;1.50;1.20;;;23.00;50.50;;;;;;5031183;28;20809;-84
2021/05/12 01:11:26;;;;;;;2.00;1.27;;;23.00;50.60;;;;;;5030609;28;20480;-85
2021/05/12 01:13:53;;;;;;;1.40;1.10;;;23.00;50.50;;;;;;5048179;28;20467;-84
2021/05/12 01:16:20;;;;;;;1.73;1.40;;;23.00;50.10;;;;;;5030586;28;20418;-84
2021/05/12 01:18:46;;;;;;;1.80;1.20;;;23.00;50.50;;;;;;5030234;28;20493;-84
2021/05/12 01:21:22;;;;;;;1.97;1.40;;;23.00;50.50;;;;;;5048407;28;20406;-84
2021/05/12 01:23:49;;;;;;;1.60;1.33;;;23.00;50.50;;;;;;5047586;28;20414;-84
2021/05/12 01:26:20;;;;;;;2.30;1.30;;;23.00;50.50;;;;;;5025550;28;20948;-84
2021/05/12 01:28:49;;;;;;;2.27;1.67;;;23.00;50.50;;;;;;5029669;28;20404;-83
2021/05/12 01:31:18;;;;;;;1.50;1.20;;;23.00;50.50;;;;;;5012091;28;20431;-84
2021/05/12 01:33:45;;;;;;;1.40;1.00;;;23.00;50.50;;;;;;5029597;28;20502;-84
2021/05/12 01:36:15;;;;;;;2.13;1.10;;;23.00;50.50;;;;;;5029278;28;20426;-83
2021/05/12 01:38:43;;;;;;;1.57;0.93;;;23.00;50.40;;;;;;5029355;28;20466;-83
2021/05/12 01:41:10;;;;;;;2.13;1.17;;;23.00;50.50;;;;;;5011763;28;20408;-83
2021/05/12 01:43:37;;;;;;;2.23;1.30;;;23.00;50.50;;;;;;5011158;28;20425;-83
2021/05/12 01:46:03;;;;;;;1.83;1.30;;;23.00;50.50;;;;;;5011573;28;20775;-82
2021/05/12 01:48:30;;;;;;;1.47;1.17;;;23.00;50.60;;;;;;5011489;28;20420;-83
2021/05/12 01:50:55;;;;;;;2.37;1.13;;;23.00;50.60;;;;;;5032563;28;20474;-83
2021/05/12 01:53:25;;;;;;;2.00;1.50;;;23.00;50.60;;;;;;5048589;28;20427;-84
2021/05/12 01:55:52;;;;;;;2.50;1.63;;;23.00;50.60;;;;;;5031634;28;20422;-84
2021/05/12 01:58:18;;;;;;;1.20;1.10;;;22.90;50.60;;;;;;5031990;28;20484;-83
2021/05/12 02:00:50;;;;;;;1.93;1.30;;;22.90;51.20;;;;;;5031257;28;20422;-83
2021/05/12 02:03:18;;;;;;;1.50;1.03;;;22.90;50.60;;;;;;5031881;28;20419;-83
2021/05/12 02:05:45;;;;;;;2.47;1.37;;;22.90;50.60;;;;;;5049938;28;20402;-83
2021/05/12 02:08:13;;;;;;;2.07;1.20;;;22.90;50.50;;;;;;5015700;28;20433;-83
2021/05/12 02:10:42;;;;;;;2.73;1.20;;;22.90;50.60;;;;;;5046663;28;20413;-84
2021/05/12 02:13:09;;;;;;;2.10;1.23;;;22.90;50.60;;;;;;5050869;28;20501;-84
2021/05/12 02:15:36;;;;;;;1.30;1.00;;;22.90;51.20;;;;;;5049444;28;20461;-84
2021/05/12 02:18:02;;;;;;;3.17;1.00;;;22.90;50.60;;;;;;5050405;28;20457;-83
2021/05/12 02:20:31;;;;;;;1.20;1.00;;;22.90;50.60;;;;;;5049899;28;20414;-83
2021/05/12 02:22:58;;;;;;;1.93;1.13;;;22.90;50.60;;;;;;5068514;28;20206;-83
2021/05/12 02:25:24;;;;;;;1.67;1.10;;;22.90;50.60;;;;;;5068249;28;20577;-83
2021/05/12 02:27:50;;;;;;;1.37;1.07;;;22.90;50.70;;;;;;5050395;28;20426;-83
2021/05/12 02:30:16;;;;;;;1.63;1.00;;;22.80;50.70;;;;;;5039453;28;20183;-83
2021/05/12 02:32:42;;;;;;;1.57;1.20;;;22.80;50.70;;;;;;5030524;28;20636;-83
2021/05/12 02:35:10;;;;;;;1.10;1.00;;;22.80;50.70;;;;;;5030795;28;20419;-83
2021/05/12 02:37:36;;;;;;;1.30;0.97;;;22.90;50.70;;;;;;5030720;28;20470;-83
2021/05/12 02:40:05;;;;;;;1.20;0.93;;;22.80;50.60;;;;;;5047759;28;20465;-83
2021/05/12 02:42:30;;;;;;;1.57;1.30;;;22.80;50.70;;;;;;5030767;28;20415;-84
2021/05/12 02:44:56;;;;;;;1.63;1.03;;;22.90;50.70;;;;;;5030869;28;20426;-83
2021/05/12 02:47:22;;;;;;;1.07;0.97;;;22.80;50.60;;;;;;5030121;28;20206;-83
2021/05/12 02:49:48;;;;;;;1.30;0.80;;;22.80;50.60;;;;;;5030396;28;20262;-83
2021/05/12 02:52:14;;;;;;;1.30;1.10;;;22.80;50.70;;;;;;5047798;28;20180;-83
2021/05/12 02:54:39;;;;;;;1.30;1.00;;;22.80;50.60;;;;;;5030094;28;20218;-83
2021/05/12 02:57:05;;;;;;;1.30;0.97;;;22.90;50.70;;;;;;5030008;28;20203;-83
2021/05/12 02:59:31;;;;;;;1.70;1.10;;;22.90;50.70;;;;;;5030158;28;20186;-83
2021/05/12 03:01:57;;;;;;;1.20;1.00;;;22.90;50.70;;;;;;5048241;28;20422;-83
2021/05/12 03:04:23;;;;;;;1.40;1.10;;;22.90;50.70;;;;;;5029348;28;20177;-83
2021/05/12 03:06:49;;;;;;;2.27;1.10;;;22.90;50.70;;;;;;5047359;28;20178;-83
2021/05/12 03:09:15;;;;;;;1.93;1.23;;;22.90;50.70;;;;;;5048228;28;20172;-83
2021/05/12 03:11:41;;;;;;;1.20;1.00;;;22.90;50.70;;;;;;5029971;28;20430;-84
2021/05/12 03:14:09;;;;;;;1.50;1.00;;;22.90;50.60;;;;;;5046660;28;20797;-83
2021/05/12 03:16:36;;;;;;;1.50;1.10;;;22.90;50.60;;;;;;5047460;28;20418;-84
2021/05/12 03:19:04;;;;;;;1.40;1.03;;;22.90;50.60;;;;;;5029983;28;20424;-84
2021/05/12 03:21:31;;;;;;;1.27;0.80;;;22.90;50.60;;;;;;5046922;28;20460;-83
2021/05/12 03:23:57;;;;;;;1.27;0.90;;;22.90;50.50;;;;;;5047012;28;20453;-83
2021/05/12 03:26:23;;;;;;;1.40;0.93;;;22.90;50.50;;;;;;5029730;28;20434;-84
2021/05/12 03:28:49;;;;;;;1.53;1.00;;;22.90;50.50;;;;;;5033130;28;20317;-83
2021/05/12 03:31:15;;;;;;;1.27;1.00;;;22.90;50.50;;;;;;5050512;28;20168;-83
2021/05/12 03:33:41;;;;;;;0.97;0.77;;;22.90;50.50;;;;;;5050992;28;20671;-83
2021/05/12 03:36:10;;;;;;;1.00;0.80;;;22.90;50.50;;;;;;5033682;28;20206;-83
2021/05/12 03:38:37;;;;;;;1.60;1.23;;;22.80;50.40;;;;;;5032793;28;20458;-83
2021/05/12 03:41:05;;;;;;;1.20;0.90;;;22.80;50.50;;;;;;5033026;28;20444;-83
2021/05/12 03:43:31;;;;;;;0.90;0.80;;;22.80;50.50;;;;;;5033874;28;20406;-83
2021/05/12 03:45:57;;;;;;;1.20;1.10;;;22.80;50.50;;;;;;5050492;28;20417;-83
2021/05/12 03:48:23;;;;;;;1.27;1.10;;;22.80;50.50;;;;;;5052227;28;20892;-83
2021/05/12 03:50:48;;;;;;;1.00;0.80;;;22.80;50.40;;;;;;5053724;28;20203;-82
2021/05/12 03:53:14;;;;;;;0.97;0.87;;;22.80;50.40;;;;;;5035362;28;20254;-83
2021/05/12 03:55:41;;;;;;;1.40;1.10;;;22.80;50.50;;;;;;5035680;28;20194;-83
2021/05/12 03:58:08;;;;;;;1.20;0.80;;;22.80;50.50;;;;;;5034644;28;20203;-83
2021/05/12 04:00:38;;;;;;;1.20;1.03;;;22.80;50.50;;;;;;5034932;28;20419;-83
2021/05/12 04:03:04;;;;;;;2.50;1.10;;;22.80;51.00;;;;;;5035842;28;20518;-83
2021/05/12 04:05:30;;;;;;;1.50;1.20;;;22.80;51.10;;;;;;5053165;28;20410;-83
2021/05/12 04:07:56;;;;;;;1.10;1.00;;;22.80;50.50;;;;;;5035235;28;20932;-83
2021/05/12 04:10:22;;;;;;;1.23;1.13;;;22.80;50.50;;;;;;5036204;28;20176;-83
2021/05/12 04:12:48;;;;;;;1.23;0.90;;;22.80;50.40;;;;;;5053706;28;20414;-83
2021/05/12 04:15:15;;;;;;;1.40;1.00;;;22.80;50.40;;;;;;5054609;28;20406;-83
2021/05/12 04:17:43;;;;;;;1.23;0.83;;;22.80;50.50;;;;;;5036932;28;20215;-83
2021/05/12 04:20:12;;;;;;;1.20;0.93;;;22.80;50.50;;;;;;5037966;28;20425;-83
2021/05/12 04:22:39;;;;;;;1.33;1.00;;;22.80;50.50;;;;;;5037374;28;20481;-83
2021/05/12 04:25:10;;;;;;;1.70;1.10;;;22.80;50.50;;;;;;5037387;28;20437;-83
2021/05/12 04:27:36;;;;;;;1.10;1.00;;;22.80;50.50;;;;;;5037452;28;20514;-83
2021/05/12 04:30:04;;;;;;;1.17;1.00;;;22.80;50.50;;;;;;5038109;28;20419;-83
2021/05/12 04:32:30;;;;;;;1.43;1.10;;;22.80;50.50;;;;;;5054741;28;20402;-83
2021/05/12 04:34:56;;;;;;;1.90;1.30;;;22.80;50.50;;;;;;5037547;28;20433;-84
2021/05/12 04:37:21;;;;;;;1.10;0.97;;;22.80;50.50;;;;;;5037250;28;20203;-83
2021/05/12 04:39:47;;;;;;;1.30;1.20;;;22.80;50.40;;;;;;5053626;28;20186;-83
2021/05/12 04:42:13;;;;;;;1.40;1.00;;;22.90;50.50;;;;;;5036256;28;20159;-83
2021/05/12 04:44:40;;;;;;;1.40;1.10;;;22.90;50.50;;;;;;5035698;28;20423;-83
2021/05/12 04:47:05;;;;;;;1.10;1.00;;;22.80;50.40;;;;;;5020041;28;20188;-83
2021/05/12 04:49:34;;;;;;;1.57;0.90;;;22.80;50.40;;;;;;5053994;28;20410;-83
2021/05/12 04:52:00;;;;;;;1.13;1.03;;;22.80;50.40;;;;;;5034409;28;20195;-83
2021/05/12 04:54:27;;;;;;;2.60;1.20;;;22.80;50.40;;;;;;5036774;28;20422;-83
2021/05/12 04:56:53;;;;;;;1.50;1.40;;;22.80;50.40;;;;;;5055831;28;20217;-83
2021/05/12 04:59:19;;;;;;;2.80;1.33;;;22.80;50.40;;;;;;5054856;28;20410;-82
2021/05/12 05:01:46;;;;;;;1.23;1.13;;;22.90;50.50;;;;;;5038368;28;20186;-83
2021/05/12 05:04:15;;;;;;;1.40;1.30;;;22.80;50.40;;;;;;5054361;28;20175;-84
2021/05/12 05:09:32;;;;;;;1.50;1.30;;;22.90;50.40;;;;;;5052623;28;20391;-82
2021/05/12 05:12:01;;;;;;;1.37;1.23;;;22.90;50.50;;;;;;5035681;28;20428;-83
2021/05/12 05:14:28;;;;;;;1.57;1.43;;;22.90;50.50;;;;;;5033783;28;20422;-82
2021/05/12 05:16:54;;;;;;;1.80;1.30;;;22.90;50.40;;;;;;5033612;28;20512;-82
2021/05/12 05:19:20;;;;;;;1.43;1.33;;;22.90;50.40;;;;;;5033578;28;20418;-82
2021/05/12 05:21:50;;;;;;;1.43;1.10;;;22.90;50.40;;;;;;5034706;28;20430;-83
2021/05/12 05:24:16;;;;;;;1.53;1.37;;;22.90;50.40;;;;;;5034130;28;20445;-83
2021/05/12 05:26:46;;;;;;;1.40;1.30;;;22.90;50.40;;;;;;5036318;28;20438;-83
2021/05/12 05:29:12;;;;;;;1.30;1.20;;;22.90;50.40;;;;;;5035512;28;20414;-83
2021/05/12 05:31:41;;;;;;;1.83;1.40;;;22.90;50.40;;;;;;5054425;28;20474;-83
2021/05/12 05:34:09;;;;;;;1.70;1.50;;;22.90;50.40;;;;;;5036785;28;20168;-82
2021/05/12 05:36:38;;;;;;;1.40;1.30;;;22.90;50.40;;;;;;5049434;28;20414;-82
2021/05/12 05:39:04;;;;;;;1.40;1.30;;;22.90;50.40;;;;;;5032737;28;20429;-82
2021/05/12 05:41:30;;;;;;;2.27;1.47;;;22.90;50.40;;;;;;5034599;28;20487;-83
2021/05/12 05:43:55;;;;;;;1.53;1.43;;;23.00;50.50;;;;;;5037656;28;20398;-83
2021/05/12 05:46:21;;;;;;;1.70;1.60;;;23.00;50.40;;;;;;5036440;28;20275;-83
2021/05/12 05:48:47;;;;;;;1.43;1.33;;;23.00;50.40;;;;;;5036536;28;20164;-82
2021/05/12 05:51:13;;;;;;;1.40;1.30;;;23.00;50.40;;;;;;5053307;28;20732;-82
2021/05/12 05:53:40;;;;;;;2.77;1.50;;;23.00;50.30;;;;;;5053714;28;20199;-80
2021/05/12 05:56:07;;;;;;;1.20;1.10;;;23.10;50.50;;;;;;5057401;28;20195;-81
2021/05/12 06:01:08;;;;;;;1.87;1.37;;;23.10;50.40;;;;;;5223412;22;20502;-83
2021/05/12 06:03:33;;;;;;;1.60;1.50;;;23.10;50.40;;;;;;5009330;28;20520;-84
2021/05/12 06:06:00;;;;;;;1.73;1.63;;;23.10;50.50;;;;;;4995794;28;20183;-83
2021/05/12 06:08:26;;;;;;;2.30;1.43;;;23.10;50.50;;;;;;4993153;28;20240;-82
2021/05/12 06:10:51;;;;;;;1.70;1.47;;;23.10;50.50;;;;;;5008136;28;20428;-83
2021/05/12 06:13:17;;;;;;;1.40;1.20;;;23.10;50.50;;;;;;5007359;28;20173;-83
2021/05/12 06:15:43;;;;;;;2.00;1.70;;;23.10;50.40;;;;;;5007685;28;20197;-83
2021/05/12 06:18:09;;;;;;;1.87;1.47;;;23.10;50.50;;;;;;5005441;28;20204;-82
2021/05/12 06:20:37;;;;;;;1.47;1.37;;;23.10;50.50;;;;;;4988621;28;20732;-84
2021/05/12 06:23:05;;;;;;;1.80;1.50;;;23.20;50.60;;;;;;5006077;28;20181;-83
2021/05/12 06:28:28;;;;;;;1.77;1.57;;;23.20;50.50;;;;;;5016516;28;20391;-81
2021/05/12 06:30:57;;;;;;;1.70;1.50;;;23.10;51.00;;;;;;4999323;28;20416;-81
2021/05/12 06:34:19;;;;;;;2.67;1.57;;;23.20;50.50;;;;;;4995946;28;20408;-79
2021/05/12 06:36:50;;;;;;;2.07;1.47;;;23.20;50.70;;;;;;4958373;29;20422;-80
2021/05/12 06:39:52;;;;;;;1.83;1.30;;;23.20;50.70;;;;;;4961552;28;20402;-80
2021/05/12 06:45:42;;;;;;;2.10;1.43;;;23.20;50.60;;;;;;4977391;28;20421;-80
2021/05/12 06:48:10;;;;;;;1.33;1.23;;;23.20;50.60;;;;;;5190628;23;20452;-80
2021/05/12 06:50:44;;;;;;;1.80;1.33;;;23.20;50.70;;;;;;5018200;28;20508;-79
2021/05/12 06:53:13;;;;;;;1.50;1.23;;;23.20;50.60;;;;;;4999641;28;20412;-81
2021/05/12 06:55:39;;;;;;;1.50;1.10;;;23.20;50.60;;;;;;4998757;28;20423;-79
2021/05/12 06:58:08;;;;;;;1.77;1.40;;;23.30;50.60;;;;;;5016912;28;20451;-80
2021/05/12 07:00:34;;;;;;;1.43;1.30;;;23.30;50.60;;;;;;5015471;28;20556;-82
2021/05/12 07:03:00;;;;;;;2.53;1.47;;;23.30;50.60;;;;;;5016157;28;20412;-81
2021/05/12 07:05:34;;;;;;;1.60;1.20;;;23.30;50.60;;;;;;4999242;28;20439;-81
2021/05/12 07:14:03;;;;;;;1.93;1.60;;;23.30;50.60;;;;;;5357742;22;20486;-80
2021/05/12 07:16:31;;;;;;;3.40;1.50;;;23.30;50.50;;;;;;5057702;28;20371;-81
2021/05/12 07:18:57;;;;;;;1.50;1.40;;;23.30;50.60;;;;;;5057410;28;20987;-81
2021/05/12 07:21:22;;;;;;;1.40;1.10;;;23.40;50.70;;;;;;5057009;28;20445;-81
2021/05/12 07:23:48;;;;;;;1.80;1.20;;;23.40;50.60;;;;;;5057473;28;20183;-81
2021/05/12 07:26:14;;;;;;;2.13;1.40;;;23.40;50.60;;;;;;5057559;28;20188;-82
2021/05/12 07:28:53;;;;;;;1.63;1.53;;;23.40;50.60;;;;;;5056956;28;20179;-81
2021/05/12 07:31:21;;;;;;;1.97;1.77;;;23.40;50.60;;;;;;5057016;28;20167;-81
2021/05/12 07:33:47;;;;;;;1.63;1.37;;;23.40;50.50;;;;;;5056929;28;20418;-81
2021/05/12 07:36:16;;;;;;;2.17;1.30;;;23.40;50.60;;;;;;5039887;28;20419;-80
2021/05/12 07:38:42;;;;;;;1.83;1.30;;;23.40;50.60;;;;;;5057157;28;20457;-81
2021/05/12 07:41:11;;;;;;;1.33;1.23;;;23.40;50.50;;;;;;5040769;28;20421;-81
2021/05/12 07:43:37;;;;;;;1.33;1.17;;;23.50;50.60;;;;;;5057642;28;20198;-80
2021/05/12 07:46:03;;;;;;;2.53;1.17;;;23.40;50.50;;;;;;5057469;28;20406;-81
2021/05/12 07:48:31;;;;;;;1.70;1.20;;;23.40;50.60;;;;;;5057465;28;20438;-82
2021/05/12 07:50:57;;;;;;;2.03;1.50;;;23.50;50.70;;;;;;5057310;28;20437;-81
2021/05/12 07:53:23;;;;;;;2.50;1.60;;;23.50;50.60;;;;;;5057061;28;20406;-81
2021/05/12 07:55:49;;;;;;;2.03;1.10;;;23.50;50.70;;;;;;5039721;28;20480;-81
2021/05/12 07:58:18;;;;;;;1.57;1.20;;;23.50;50.60;;;;;;5056606;28;20271;-81
2021/05/12 08:00:45;;;;;;;1.90;1.00;;;23.50;50.70;;;;;;5038933;28;20187;-81
2021/05/12 08:03:14;;;;;;;1.37;1.13;;;23.50;50.60;;;;;;5054907;28;20410;-80
2021/05/12 08:05:46;;;;;;;1.10;1.00;;;23.50;50.50;;;;;;5038557;28;20425;-81
2021/05/12 08:08:11;;;;;;;1.53;1.40;;;23.50;50.60;;;;;;5039134;28;20446;-81
2021/05/12 08:10:40;;;;;;;1.50;1.00;;;23.50;50.60;;;;;;5056780;28;20413;-81
2021/05/12 08:13:06;;;;;;;1.23;1.13;;;23.60;50.60;;;;;;5038908;28;20243;-82
2021/05/12 08:15:34;;;;;;;2.53;1.17;;;23.60;50.70;;;;;;5059663;28;20398;-80
2021/05/12 08:18:03;;;;;;;1.50;1.10;;;23.60;50.70;;;;;;5060152;28;20450;-81
2021/05/12 08:20:30;;;;;;;1.60;1.40;;;23.60;50.50;;;;;;5059990;28;20521;-81
2021/05/12 08:22:59;;;;;;;1.40;1.30;;;23.60;50.70;;;;;;5061063;28;20414;-82
2021/05/12 08:25:25;;;;;;;2.17;1.13;;;23.60;50.50;;;;;;5043076;28;20405;-82
2021/05/12 08:27:55;;;;;;;3.17;1.30;;;23.60;50.60;;;;;;5042190;28;20423;-80
2021/05/12 08:30:26;;;;;;;1.73;1.20;;;23.60;50.60;;;;;;5059406;28;20410;-81
2021/05/12 08:32:55;;;;;;;1.20;1.10;;;23.60;50.50;;;;;;5042375;28;20415;-80
2021/05/12 08:35:23;;;;;;;1.20;1.10;;;23.60;50.50;;;;;;5042928;28;20609;-81
2021/05/12 08:37:55;;;;;;;1.40;1.30;;;23.60;50.70;;;;;;5059944;28;20447;-81
2021/05/12 08:40:27;;;;;;;1.53;0.87;;;23.60;50.60;;;;;;5059964;28;20447;-80
2021/05/12 08:42:54;;;;;;;1.83;1.23;;;23.60;50.50;;;;;;5059695;28;20382;-81
2021/05/12 08:45:20;;;;;;;2.10;0.90;;;23.60;50.60;;;;;;5041287;28;20485;-81
2021/05/12 08:47:54;;;;;;;1.70;1.00;;;23.70;50.60;;;;;;5041662;28;20851;-80
2021/05/12 08:50:21;;;;;;;3.23;1.40;;;23.70;50.60;;;;;;5058378;28;20371;-81
2021/05/12 08:52:48;;;;;;;1.67;1.10;;;23.70;50.70;;;;;;5058518;28;20438;-81
2021/05/12 08:55:15;;;;;;;3.03;1.30;;;23.70;50.60;;;;;;5059625;28;20395;-81
2021/05/12 08:57:43;;;;;;;1.70;1.20;;;23.70;50.60;;;;;;5041660;28;20472;-81
2021/05/12 09:00:10;;;;;;;1.20;1.00;;;23.70;50.70;;;;;;5060130;28;20406;-81
2021/05/12 09:02:36;;;;;;;1.23;1.03;;;23.70;50.60;;;;;;5059137;28;20421;-81
2021/05/12 09:05:07;;;;;;;1.40;1.27;;;23.70;50.70;;;;;;5041746;28;20433;-81
2021/05/12 09:07:39;;;;;;;1.30;1.00;;;23.70;50.70;;;;;;5041845;28;20423;-81
2021/05/12 09:10:08;;;;;;;1.87;1.60;;;23.70;50.60;;;;;;5041792;28;20438;-81
2021/05/12 09:12:43;;;;;;;1.70;1.00;;;23.70;50.60;;;;;;5041788;28;20456;-81
2021/05/12 09:15:11;;;;;;;2.80;1.13;;;23.70;50.60;;;;;;5041674;28;20448;-80
2021/05/12 09:17:44;;;;;;;4.33;1.30;;;23.70;50.60;;;;;;5042339;28;20446;-80
2021/05/12 09:20:19;;;;;;;2.80;1.53;;;23.70;50.70;;;;;;5042242;28;20402;-81
2021/05/12 09:23:11;;;;;;;1.57;1.00;;;23.70;50.70;;;;;;5058812;28;20456;-80
2021/05/12 09:25:40;;;;;;;1.83;1.20;;;23.80;50.70;;;;;;5058328;28;20410;-81
2021/05/12 09:28:09;;;;;;;1.40;1.10;;;23.70;50.70;;;;;;5041786;28;20418;-81
2021/05/12 09:30:39;;;;;;;2.60;1.33;;;23.80;50.80;;;;;;5041280;28;20429;-82
2021/05/12 09:33:06;;;;;;;2.70;1.43;;;23.80;50.70;;;;;;5041487;28;20414;-81
2021/05/12 09:35:39;;;;;;;1.33;1.00;;;23.80;50.70;;;;;;5042247;28;20435;-81
2021/05/12 09:38:21;;;;;;;1.20;1.10;;;23.70;50.70;;;;;;5042220;28;20450;-80
2021/05/12 09:41:04;;;;;;;1.30;1.10;;;23.80;50.70;;;;;;5058886;28;20455;-81
2021/05/12 09:43:32;;;;;;;1.50;1.20;;;23.80;50.70;;;;;;5041556;28;20422;-80
2021/05/12 09:46:37;;;;;;;1.40;0.97;;;23.80;50.70;;;;;;5041282;28;20496;-81
2021/05/12 09:49:02;;;;;;;1.70;1.17;;;23.80;50.70;;;;;;4937330;29;20933;-83
2021/05/12 09:51:37;;;;;;;1.70;1.10;;;23.80;50.70;;;;;;4938869;29;20415;-83
2021/05/12 09:54:11;;;;;;;1.73;1.20;;;23.80;50.70;;;;;;4952170;29;20182;-82
2021/05/12 09:56:45;;;;;;;2.63;1.13;;;23.80;50.70;;;;;;4932678;29;20419;-83
2021/05/12 09:59:14;;;;;;;2.50;1.23;;;23.80;50.60;;;;;;4932401;29;20518;-82
2021/05/12 10:01:45;;;;;;;1.40;1.20;;;23.80;50.60;;;;;;4947060;29;20419;-83
2021/05/12 10:04:52;;;;;;;1.53;1.20;;;23.80;50.60;;;;;;4933106;29;20426;-82
2021/05/12 10:07:24;;;;;;;1.50;1.27;;;23.80;50.60;;;;;;4948423;29;20929;-85
2021/05/12 10:09:58;;;;;;;1.67;1.27;;;23.80;50.60;;;;;;4948906;29;20896;-83
2021/05/12 10:12:25;;;;;;;1.30;1.20;;;23.80;50.60;;;;;;4950039;29;20411;-83
2021/05/12 10:14:58;;;;;;;2.60;1.30;;;23.80;50.60;;;;;;4946707;29;20502;-83
2021/05/12 10:17:27;;;;;;;1.23;1.10;;;23.80;50.60;;;;;;4948842;29;20454;-83
2021/05/12 10:19:54;;;;;;;1.80;1.37;;;23.80;50.60;;;;;;4966646;29;20422;-83
2021/05/12 10:22:21;;;;;;;2.60;1.40;;;23.80;50.60;;;;;;4949461;29;20469;-83
2021/05/12 10:24:48;;;;;;;1.27;1.10;;;23.80;50.60;;;;;;4951768;29;20486;-83
2021/05/12 10:27:17;;;;;;;2.27;1.87;;;23.80;50.60;;;;;;5045533;28;20418;-83
2021/05/12 10:29:49;;;;;;;2.07;1.37;;;23.70;50.50;;;;;;5050357;28;20429;-82
2021/05/12 10:32:23;;;;;;;1.40;1.20;;;23.80;50.60;;;;;;5047680;28;20501;-84
2021/05/12 10:35:11;;;;;;;1.43;1.20;;;24.00;50.80;;;;;;5049020;28;20421;-83
2021/05/12 10:37:47;;;;;;;1.90;1.63;;;23.80;50.60;;;;;;5046883;28;20457;-85
2021/05/12 10:40:22;;;;;;;2.13;1.40;;;23.80;50.70;;;;;;5055923;28;20430;-83
2021/05/12 10:43:30;;;;;;;4.13;1.80;;;23.80;50.70;;;;;;5017800;28;20423;-83
2021/05/12 10:48:50;;;;;;;4.13;2.43;;;23.70;50.70;;;;;;5046968;28;20415;-82
2021/05/12 10:51:22;;;;;;;2.53;2.03;;;23.70;50.70;;;;;;5049389;28;20414;-82
2021/05/12 10:53:50;;;;;;;3.87;2.70;;;23.70;50.80;;;;;;5010136;28;20421;-81
2021/05/12 10:56:18;;;;;;;4.30;2.20;;;23.70;50.70;;;;;;5009855;28;20426;-82
2021/05/12 10:59:03;;;;;;;3.60;1.90;;;23.90;50.90;;;;;;5010025;28;20470;-82
2021/05/12 11:01:52;;;;;;;5.40;2.70;;;23.70;50.70;;;;;;5033967;28;20430;-82
2021/05/12 11:04:22;;;;;;;4.00;2.40;;;23.70;50.70;;;;;;5059280;28;20493;-82
2021/05/12 11:06:52;;;;;;;3.70;2.47;;;23.70;50.70;;;;;;5041150;28;20413;-82
2021/05/12 11:09:20;;;;;;;5.20;2.83;;;23.60;50.80;;;;;;5050753;28;20492;-81
2021/05/12 11:11:51;;;;;;;5.83;2.60;;;23.70;50.80;;;;;;5051759;28;20410;-82
2021/05/12 11:14:25;;;;;;;5.40;2.60;;;23.70;50.80;;;;;;5050987;28;20452;-81
2021/05/12 11:17:13;;;;;;;6.87;2.93;;;23.70;50.80;;;;;;5068356;28;20420;-81
2021/05/12 11:19:47;;;;;;;3.70;2.53;;;23.70;50.80;;;;;;5067405;28;20410;-82
2021/05/12 11:22:30;;;;;;;7.60;3.13;;;23.70;50.90;;;;;;5051993;28;20950;-82
2021/05/12 11:25:02;;;;;;;4.43;2.83;;;23.70;50.90;;;;;;5049393;28;20393;-82
2021/05/12 11:32:59;;;;;;;5.80;2.70;;;23.70;50.90;;;;;;5047147;28;20434;-82
2021/05/12 11:35:25;;;;;;;4.73;3.00;;;23.60;50.90;;;;;;5029571;28;20427;-82
2021/05/12 11:37:50;;;;;;;5.90;3.27;;;23.60;50.90;;;;;;5027835;28;20199;-82
2021/05/12 11:40:16;;;;;;;6.07;3.37;;;23.60;50.90;;;;;;5046907;28;20168;-82
2021/05/12 11:42:42;;;;;;;5.97;3.40;;;23.60;50.90;;;;;;5046906;28;20203;-82
2021/05/12 11:45:17;;;;;;;7.57;2.50;;;23.60;50.90;;;;;;5046491;28;20179;-82
2021/05/12 11:47:57;;;;;;;7.73;3.13;;;23.70;50.90;;;;;;5029369;28;20410;-84
2021/05/12 11:50:28;;;;;;;5.90;2.37;;;23.60;50.90;;;;;;5030664;28;20449;-83
2021/05/12 11:52:54;;;;;;;8.13;2.93;;;23.70;51.00;;;;;;5012900;28;20426;-82
2021/05/12 11:55:24;;;;;;;7.53;3.53;;;23.60;50.90;;;;;;5013116;28;20480;-82
2021/05/12 11:57:52;;;;;;;5.03;2.80;;;23.70;50.90;;;;;;5016971;28;20450;-82
2021/05/12 12:00:22;;;;;;;5.77;2.70;;;23.60;50.90;;;;;;5063878;28;20407;-82
2021/05/12 12:03:01;;;;;;;7.50;2.43;;;23.50;50.80;;;;;;5050834;28;20411;-83
2021/05/12 12:05:40;;;;;;;4.37;2.60;;;23.70;50.90;;;;;;5032135;28;20464;-83
2021/05/12 12:08:14;;;;;;;6.00;3.33;;;23.60;50.80;;;;;;5032392;28;20414;-83
2021/05/12 12:10:40;;;;;;;5.33;2.70;;;23.60;50.90;;;;;;5032408;28;20491;-82
2021/05/12 12:13:14;;;;;;;6.70;2.60;;;23.60;50.90;;;;;;5050322;28;20494;-83
2021/05/12 12:15:41;;;;;;;5.40;3.10;;;23.60;50.90;;;;;;5033297;28;20410;-83
2021/05/12 12:18:07;;;;;;;7.60;2.73;;;23.60;50.80;;;;;;5052402;28;20457;-83
2021/05/12 12:20:36;;;;;;;6.27;3.20;;;23.60;50.90;;;;;;5064574;28;20423;-84
2021/05/12 12:23:02;;;;;;;4.10;2.37;;;23.60;50.90;;;;;;5065159;28;20167;-83
2021/05/12 12:25:47;;;;;;;6.40;3.03;;;23.60;50.90;;;;;;5070693;28;20421;-82
2021/05/12 12:28:13;;;;;;;5.53;3.20;;;23.60;50.90;;;;;;5040842;28;20398;-83
2021/05/12 12:34:31;;;;;;;4.53;2.60;;;23.60;50.90;;;;;;5070068;28;20190;-83
2021/05/12 12:37:15;;;;;;;7.13;2.70;;;23.60;50.90;;;;;;5069023;28;20433;-82
2021/05/12 12:42:24;;;;;;;4.27;2.90;;;23.60;51.00;;;;;;5070681;28;20449;-80
2021/05/12 12:44:54;;;;;;;5.00;2.70;;;23.60;51.00;;;;;;5052142;28;20414;-82
2021/05/12 12:47:21;;;;;;;5.10;2.60;;;23.60;51.00;;;;;;5051307;28;20421;-82
2021/05/12 12:49:57;;;;;;;5.70;2.93;;;23.60;51.00;;;;;;5051220;28;20429;-83
2021/05/12 12:52:25;;;;;;;4.50;3.33;;;23.60;50.90;;;;;;5049985;28;20398;-83
2021/05/12 12:57:24;;;;;;;6.43;2.77;;;23.50;50.90;;;;;;5049260;28;20455;-83
2021/05/12 13:00:00;;;;;;;6.83;3.00;;;23.60;51.00;;;;;;5031018;28;20465;-83
2021/05/12 13:02:25;;;;;;;4.90;2.40;;;23.60;51.00;;;;;;5031548;28;20191;-82
2021/05/12 13:05:12;;;;;;;5.87;3.30;;;23.50;50.90;;;;;;5049423;28;20406;-82
2021/05/12 13:07:37;;;;;;;3.27;2.43;;;23.60;50.90;;;;;;5048961;28;20215;-83
2021/05/12 13:10:43;;;;;;;11.90;3.57;;;23.50;50.90;;;;;;5051944;28;20421;-82
2021/05/12 13:13:34;;;;;;;4.80;2.43;;;23.60;50.90;;;;;;4988204;28;20695;-82
2021/05/12 13:16:31;;;;;;;6.03;2.87;;;23.60;50.90;;;;;;4972170;28;20439;-81
2021/05/12 13:18:57;;;;;;;4.47;2.40;;;23.50;50.90;;;;;;4972080;28;20475;-82
2021/05/12 13:21:27;;;;;;;5.20;2.73;;;23.50;50.90;;;;;;4958415;29;20426;-83
2021/05/12 13:24:03;;;;;;;2.63;2.43;;;23.50;50.90;;;;;;4952309;29;20458;-83
2021/05/12 13:26:39;;;;;;;4.43;2.20;;;23.50;50.90;;;;;;4952684;29;20530;-83
2021/05/12 13:29:08;;;;;;;4.53;2.50;;;23.50;50.90;;;;;;4953323;29;20425;-84
2021/05/12 13:31:34;;;;;;;7.27;3.17;;;23.50;50.90;;;;;;4982815;28;20413;-83
2021/05/12 13:34:01;;;;;;;5.40;2.60;;;23.50;51.40;;;;;;4986840;28;20417;-83
2021/05/12 13:36:27;;;;;;;3.63;2.57;;;23.50;50.90;;;;;;4971250;28;20413;-83
2021/05/12 13:38:53;;;;;;;3.27;2.50;;;23.50;50.90;;;;;;4971279;28;20464;-83